Latest Weather Observations for St Kilda Harbour RMYS

IDV60901

Issued at 6:21 am EST Friday 27 May 2016 (issued every 10 minutes, with the page automatically refreshed every 10 minutes)

About weather observations | Map of Melbourne area stations | Latest observations for Melbourne area | Other Formats
Station Details ID: 086220 Name: ST KILDA HARBOUR - RMYS Lat: -37.86 Lon: 144.96 Height: 6.4 m
Data from the previous 72 hours. | See also: Recent months for locations in Victoria
Date/Time
EST
Tmp

°C
App
Tmp
°C
Dew
Point
°C
Rel
Hum
%
Delta-T

°C
Wind Press
QNH
hPa
Press
MSL
hPa
Rain
since
9 am
mm
Dir
 
Spd
km/h
Gust
km/h
Spd
kts
Gust
kts
27/06:00am - - - - - W 26 30 14 16 - - -
27/05:30am - - - - - W 26 33 14 18 - - -
27/05:00am - - - - - W 30 35 16 19 - - -
27/04:30am - - - - - W 32 37 17 20 - - -
27/04:00am - - - - - W 28 35 15 19 - - -
27/03:30am - - - - - W 30 37 16 20 - - -
27/03:00am - - - - - W 30 35 16 19 - - -
27/02:30am - - - - - W 30 37 16 20 - - -
27/02:00am - - - - - W 30 37 16 20 - - -
27/01:30am - - - - - W 32 39 17 21 - - -
27/01:00am - - - - - W 28 33 15 18 - - -
27/12:30am - - - - - W 30 35 16 19 - - -
27/12:00am - - - - - W 28 35 15 19 - - -
 
Date/Time
EST
Tmp

°C
App
Tmp
°C
Dew
Point
°C
Rel
Hum
%
Delta-T

°C
Wind Press
QNH
hPa
Press
MSL
hPa
Rain
since
9 am
mm
Dir
 
Spd
km/h
Gust
km/h
Spd
kts
Gust
kts
26/11:30pm - - - - - W 26 32 14 17 - - -
26/11:00pm - - - - - W 28 32 15 17 - - -
26/10:30pm - - - - - W 32 39 17 21 - - -
26/10:00pm - - - - - W 28 35 15 19 - - -
26/09:30pm - - - - - W 28 37 15 20 - - -
26/09:00pm - - - - - W 28 37 15 20 - - -
26/08:30pm - - - - - WSW 32 39 17 21 - - -
26/08:00pm - - - - - WSW 30 41 16 22 - - -
26/07:30pm - - - - - WSW 30 37 16 20 - - -
26/07:00pm - - - - - WSW 32 35 17 19 - - -
26/06:30pm - - - - - WSW 30 35 16 19 - - -
26/06:00pm - - - - - SSW 30 39 16 21 - - -
26/05:30pm - - - - - WSW 32 37 17 20 - - -
26/05:00pm - - - - - SW 22 32 12 17 - - -
26/04:30pm - - - - - SW 33 43 18 23 - - -
26/04:00pm - - - - - WSW 32 39 17 21 - - -
26/03:30pm - - - - - WSW 30 33 16 18 - - -
26/03:00pm - - - - - WSW 30 35 16 19 - - -
26/02:30pm - - - - - WSW 33 39 18 21 - - -
26/02:00pm - - - - - WSW 30 37 16 20 - - -
26/01:30pm - - - - - SW 32 39 17 21 - - -
26/01:00pm - - - - - WSW 33 39 18 21 - - -
26/12:30pm - - - - - SSW 32 37 17 20 - - -
26/12:00pm - - - - - SW 32 41 17 22 - - -
26/11:30am - - - - - SW 32 39 17 21 - - -
26/11:00am - - - - - WNW 20 30 11 16 - - -
26/10:30am - - - - - NNW 17 22 9 12 - - -
26/10:00am - - - - - N 15 20 8 11 - - -
26/09:30am - - - - - N 11 17 6 9 - - -
26/09:00am - - - - - N 11 19 6 10 - - -
26/08:30am - - - - - N 11 19 6 10 - - -
26/08:00am - - - - - N 15 20 8 11 - - -
26/07:30am - - - - - N 13 22 7 12 - - -
26/07:00am - - - - - N 15 26 8 14 - - -
26/06:30am - - - - - N 20 33 11 18 - - -
26/06:00am - - - - - N 20 32 11 17 - - -
26/05:30am - - - - - N 20 28 11 15 - - -
26/05:00am - - - - - N 24 37 13 20 - - -
26/04:30am - - - - - N 26 41 14 22 - - -
26/04:00am - - - - - N 24 39 13 21 - - -
26/03:32am - - - - - N 28 50 15 27 - - -
26/03:30am - - - - - N 26 50 14 27 - - -
26/03:00am - - - - - N 26 37 14 20 - - -
26/02:30am - - - - - N 24 41 13 22 - - -
26/02:00am - - - - - N 20 28 11 15 - - -
26/01:30am - - - - - N 26 33 14 18 - - -
26/01:00am - - - - - N 28 48 15 26 - - -
26/12:30am - - - - - N 22 37 12 20 - - -
26/12:00am - - - - - N 24 35 13 19 - - -
 
Date/Time
EST
Tmp

°C
App
Tmp
°C
Dew
Point
°C
Rel
Hum
%
Delta-T

°C
Wind Press
QNH
hPa
Press
MSL
hPa
Rain
since
9 am
mm
Dir
 
Spd
km/h
Gust
km/h
Spd
kts
Gust
kts
25/11:30pm - - - - - N 28 44 15 24 - - -
25/11:00pm - - - - - N 22 35 12 19 - - -
25/10:30pm - - - - - N 28 43 15 23 - - -
25/10:03pm - - - - - N 33 52 18 28 - - -
25/10:00pm - - - - - N 37 52 20 28 - - -
25/09:30pm - - - - - N 35 57 19 31 - - -
25/09:13pm - - - - - N 30 48 16 26 - - -
25/09:00pm - - - - - N 32 44 17 24 - - -
25/08:30pm - - - - - N 28 43 15 23 - - -
25/08:10pm - - - - - N 30 50 16 27 - - -
25/08:00pm - - - - - N 30 46 16 25 - - -
25/07:30pm - - - - - N 26 39 14 21 - - -
25/07:00pm - - - - - N 24 35 13 19 - - -
25/06:30pm - - - - - N 22 33 12 18 - - -
25/06:05pm - - - - - N 32 52 17 28 - - -
25/06:00pm - - - - - N 33 52 18 28 - - -
25/05:48pm - - - - - N 32 54 17 29 - - -
25/05:30pm - - - - - N 24 35 13 19 - - -
25/05:00pm - - - - - NNW 35 63 19 34 - - -
25/04:57pm - - - - - N 33 57 18 31 - - -
25/04:30pm - - - - - N 32 48 17 26 - - -
25/04:25pm - - - - - N 28 48 15 26 - - -
25/04:00pm - - - - - N 28 41 15 22 - - -
25/03:46pm - - - - - N 28 50 15 27 - - -
25/03:30pm - - - - - N 24 37 13 20 - - -
25/03:15pm - - - - - N 28 48 15 26 - - -
25/03:00pm - - - - - N 30 43 16 23 - - -
25/02:30pm - - - - - N 19 32 10 17 - - -
25/02:00pm - - - - - N 30 43 16 23 - - -
25/01:30pm - - - - - N 24 37 13 20 - - -
25/01:00pm - - - - - N 26 39 14 21 - - -
25/12:30pm - - - - - N 24 35 13 19 - - -
25/12:00pm - - - - - N 30 44 16 24 - - -
25/11:30am - - - - - NNE 30 43 16 23 - - -
25/11:00am - - - - - N 30 46 16 25 - - -
25/10:30am - - - - - N 30 50 16 27 - - -
25/10:28am - - - - - N 30 50 16 27 - - -
25/10:00am - - - - - N 26 39 14 21 - - -
25/09:30am - - - - - N 24 37 13 20 - - -
25/09:00am - - - - - N 26 41 14 22 - - -
25/08:30am - - - - - N 24 35 13 19 - - -
25/08:00am - - - - - NNE 19 30 10 16 - - -
25/07:30am - - - - - NNE 19 24 10 13 - - -
25/07:00am - - - - - NNE 15 22 8 12 - - -
25/06:30am - - - - - NNE 15 22 8 12 - - -
25/06:00am - - - - - NNE 15 20 8 11 - - -
25/05:30am - - - - - NNE 15 20 8 11 - - -
25/05:00am - - - - - NNE 15 19 8 10 - - -
25/04:30am - - - - - NNE 17 24 9 13 - - -
25/04:00am - - - - - NNE 17 24 9 13 - - -
25/03:30am - - - - - NNE 15 20 8 11 - - -
25/03:00am - - - - - NNE 15 20 8 11 - - -
25/02:30am - - - - - NNE 15 20 8 11 - - -
25/02:00am - - - - - NNE 17 22 9 12 - - -
25/01:30am - - - - - NNE 15 20 8 11 - - -
25/01:00am - - - - - NNE 15 20 8 11 - - -
25/12:30am - - - - - NNE 15 20 8 11 - - -
25/12:00am - - - - - NNE 13 19 7 10 - - -
 
Date/Time
EST
Tmp

°C
App
Tmp
°C
Dew
Point
°C
Rel
Hum
%
Delta-T

°C
Wind Press
QNH
hPa
Press
MSL
hPa
Rain
since
9 am
mm
Dir
 
Spd
km/h
Gust
km/h
Spd
kts
Gust
kts
24/11:30pm - - - - - NNE 11 17 6 9 - - -
24/11:00pm - - - - - NNE 13 20 7 11 - - -
24/10:30pm - - - - - NNE 17 22 9 12 - - -
24/10:00pm - - - - - NNE 9 15 5 8 - - -
24/09:30pm - - - - - NNE 9 13 5 7 - - -
24/09:00pm - - - - - NNE 6 7 3 4 - - -
24/08:30pm - - - - - N 7 9 4 5 - - -
24/08:00pm - - - - - NNW 7 11 4 6 - - -
24/07:30pm - - - - - NNW 6 7 3 4 - - -
24/07:00pm - - - - - NNE 4 4 2 2 - - -
24/06:30pm - - - - - WNW 6 7 3 4 - - -
24/06:00pm - - - - - WSW 7 9 4 5 - - -
24/05:30pm - - - - - WSW 11 13 6 7 - - -
24/05:00pm - - - - - SW 15 19 8 10 - - -
24/04:30pm - - - - - SW 20 24 11 13 - - -
24/04:00pm - - - - - SW 22 26 12 14 - - -
24/03:30pm - - - - - SW 19 22 10 12 - - -
24/03:00pm - - - - - SW 19 22 10 12 - - -
24/02:30pm - - - - - SW 17 20 9 11 - - -
24/02:00pm - - - - - SW 22 26 12 14 - - -
24/01:30pm - - - - - SW 26 32 14 17 - - -
24/01:00pm - - - - - SW 26 32 14 17 - - -
24/12:30pm - - - - - WSW 30 35 16 19 - - -
24/12:00pm - - - - - WSW 30 33 16 18 - - -
24/11:30am - - - - - WSW 30 35 16 19 - - -
24/11:00am - - - - - WSW 26 33 14 18 - - -
24/10:30am - - - - - W 26 33 14 18 - - -
24/10:00am - - - - - W 28 35 15 19 - - -
24/09:30am - - - - - W 24 30 13 16 - - -
24/09:00am - - - - - W 26 30 14 16 - - -
24/08:30am - - - - - W 26 32 14 17 - - -
24/08:00am - - - - - W 28 32 15 17 - - -
24/07:30am - - - - - W 24 32 13 17 - - -
24/07:00am - - - - - WNW 24 28 13 15 - - -
24/06:30am - - - - - WNW 19 24 10 13 - - -

Latest Capital City Observations: Canberra | Sydney | Melbourne | Brisbane | Adelaide | Perth | Hobart | Darwin

Other Formats:

Comma delimited format used in spreadsheet applications
http://www.bom.gov.au/fwo/IDV60901/IDV60901.95864.axf

JavaScript Object Notation format (JSON) in row-major order
http://www.bom.gov.au/fwo/IDV60901/IDV60901.95864.json